Time;durP1;ratioP1;P1;durP2;ratioP2;P2;SDS_P1;SDS_P2;PMS_P1;PMS_P2;Temp;Humidity;BMP_temperature;BMP_pressure;BME280_temperature;BME280_humidity;BME280_pressure;Samples;Min_cycle;Max_cycle;Signal;HPM_P1;HPM_P2
2023/05/02 00:01:53;;;;;;;;;11.75;10.25;;;;;15.57;51.47;101677.69;5023573;28;46108;-78
2023/05/02 00:04:19;;;;;;;;;10.25;10.25;;;;;15.56;51.90;101683.91;5060762;28;45487;-77
2023/05/02 00:06:45;;;;;;;;;13.00;12.50;;;;;15.52;51.50;101682.22;5043673;28;45361;-78
2023/05/02 00:09:11;;;;;;;;;10.25;9.00;;;;;15.52;52.05;101686.63;5061757;28;45381;-78
2023/05/02 00:11:36;;;;;;;;;10.00;8.50;;;;;15.49;51.57;101681.41;5061846;28;45372;-77
2023/05/02 00:14:02;;;;;;;;;10.75;10.75;;;;;15.47;51.76;101684.09;5061445;28;46039;-78
2023/05/02 00:16:27;;;;;;;;;12.25;9.50;;;;;15.44;51.79;101676.19;5061582;28;45534;-77
2023/05/02 00:18:52;;;;;;;;;13.75;11.25;;;;;15.48;51.79;101688.47;5061556;28;45386;-78
2023/05/02 00:21:18;;;;;;;;;11.25;11.00;;;;;15.47;51.83;101684.09;5029752;28;45408;-78
2023/05/02 00:23:43;;;;;;;;;10.25;10.25;;;;;15.48;51.91;101690.25;5041461;28;45300;-78
2023/05/02 00:26:08;;;;;;;;;13.00;11.25;;;;;15.47;51.75;101689.41;5041366;28;45274;-78
2023/05/02 00:28:34;;;;;;;;;10.25;5.75;;;;;15.47;51.83;101684.09;5041364;28;45249;-78
2023/05/02 00:31:00;;;;;;;;;15.50;11.75;;;;;15.46;52.16;101681.44;5041307;28;45538;-78
2023/05/02 00:33:25;;;;;;;;;13.50;12.00;;;;;15.46;52.25;101677.03;5041198;28;45369;-78
2023/05/02 00:35:51;;;;;;;;;13.00;12.25;;;;;15.46;51.70;101681.44;5041183;28;45269;-78
2023/05/02 00:38:16;;;;;;;;;19.25;12.50;;;;;15.42;52.00;101672.69;5041555;28;45242;-78
2023/05/02 00:40:47;;;;;;;;;13.50;12.25;;;;;15.44;52.20;101684.13;5040898;28;45506;-78
2023/05/02 00:43:13;;;;;;;;;12.25;10.75;;;;;15.42;51.92;101667.38;5040201;28;46442;-78
2023/05/02 00:45:42;;;;;;;;;13.50;11.50;;;;;15.39;52.15;101672.75;5040966;28;45317;-78
2023/05/02 00:48:09;;;;;;;;;10.50;10.50;;;;;15.38;52.09;101673.66;5040928;28;45249;-78
2023/05/02 00:50:40;;;;;;;;;13.50;10.25;;;;;15.33;51.99;101665.78;5040885;28;45405;-78
2023/05/02 00:53:06;;;;;;;;;16.75;13.00;;;;;15.33;52.11;101665.78;5041014;28;45336;-78
2023/05/02 00:55:33;;;;;;;;;15.75;13.75;;;;;15.39;51.66;101672.75;5040706;28;45421;-78
2023/05/02 00:57:59;;;;;;;;;13.00;11.00;;;;;15.38;52.20;101677.19;5041145;28;45285;-78
2023/05/02 01:00:33;;;;;;;;;13.50;12.75;;;;;15.33;51.78;101671.09;5027429;28;45482;-78
2023/05/02 01:03:15;;;;;;;;;15.25;10.75;;;;;15.34;52.04;101683.44;5040510;28;45261;-78
2023/05/02 01:05:53;;;;;;;;;14.75;14.75;;;;;15.29;52.00;101677.34;5060466;28;45426;-78
2023/05/02 01:08:28;;;;;;;;;9.25;9.25;;;;;15.32;52.18;101682.63;5042821;28;45420;-79
2023/05/02 01:11:10;;;;;;;;;14.00;14.00;;;;;15.31;52.38;101677.31;5060716;28;45262;-78
2023/05/02 01:13:38;;;;;;;;;15.00;12.00;;;;;15.28;52.34;101678.25;5059121;28;45318;-78
2023/05/02 01:16:06;;;;;;;;;16.75;12.75;;;;;15.24;52.43;101681.88;5060595;28;45304;-78
2023/05/02 01:18:37;;;;;;;;;15.25;15.25;;;;;15.24;52.12;101681.88;5059975;28;45433;-79
2023/05/02 01:21:07;;;;;;;;;12.50;9.75;;;;;15.23;52.28;101688.06;5030885;28;45457;-78
2023/05/02 01:24:11;;;;;;;;;10.25;9.75;;;;;15.22;52.20;101687.19;5022345;28;47364;-78
2023/05/02 01:27:04;;;;;;;;;15.50;13.00;;;;;15.21;52.32;101690.75;5039500;28;45346;-78
2023/05/02 01:29:33;;;;;;;;;12.75;12.00;;;;;15.18;52.26;101681.97;5040402;28;45170;-79
2023/05/02 01:32:01;;;;;;;;;13.25;13.25;;;;;15.18;52.48;101687.28;5040047;28;45623;-79
2023/05/02 01:34:35;;;;;;;;;17.50;13.00;;;;;15.16;52.43;101689.97;5040073;28;45234;-78
2023/05/02 01:37:02;;;;;;;;;17.75;14.25;;;;;15.14;52.56;101689.09;5022114;28;45283;-78
2023/05/02 01:39:29;;;;;;;;;15.00;14.00;;;;;15.13;52.35;101690.00;5038773;28;45327;-79
2023/05/02 01:41:57;;;;;;;;;15.00;14.50;;;;;15.11;52.74;101692.69;5038890;28;45773;-78
2023/05/02 01:44:23;;;;;;;;;18.50;14.50;;;;;15.10;52.41;101698.00;5038805;28;46262;-79
2023/05/02 01:46:51;;;;;;;;;17.75;15.50;;;;;15.08;52.69;101692.75;5021770;28;45319;-78
2023/05/02 01:49:18;;;;;;;;;12.25;11.00;;;;;15.08;52.35;101686.56;5040207;28;45301;-78
2023/05/02 01:51:47;;;;;;;;;13.75;13.75;;;;;15.07;52.18;101682.19;5040139;28;45404;-79
2023/05/02 01:54:14;;;;;;;;;16.25;14.25;;;;;15.07;52.58;101688.34;5039620;28;45414;-79
2023/05/02 01:56:42;;;;;;;;;14.25;13.75;;;;;15.05;52.33;101690.13;5039927;28;45341;-79
2023/05/02 01:59:10;;;;;;;;;14.25;12.50;;;;;15.06;52.73;101685.75;5054123;28;45228;-78
2023/05/02 02:01:37;;;;;;;;;14.00;14.00;;;;;15.05;52.74;101692.78;5039702;28;45407;-78
2023/05/02 02:04:05;;;;;;;;;14.75;12.75;;;;;15.04;52.91;101688.41;5039771;28;46203;-78
2023/05/02 02:06:31;;;;;;;;;14.75;13.50;;;;;15.04;52.38;101690.19;5039713;28;45245;-78
2023/05/02 02:08:56;;;;;;;;;16.25;14.00;;;;;15.03;52.27;101694.59;5021762;28;45437;-78
2023/05/02 02:11:28;;;;;;;;;16.50;12.50;;;;;15.03;52.32;101699.00;5039797;28;45269;-78
2023/05/02 02:14:03;;;;;;;;;11.75;11.75;;;;;14.97;52.73;101680.59;5021682;28;47739;-78
2023/05/02 02:16:37;;;;;;;;;12.25;12.25;;;;;14.96;52.81;101690.31;5039184;28;45404;-78
2023/05/02 02:19:07;;;;;;;;;16.25;14.25;;;;;14.95;52.58;101684.16;5021688;28;45311;-78
2023/05/02 02:21:34;;;;;;;;;17.75;16.00;;;;;14.98;52.50;101695.56;5039608;28;45192;-78
2023/05/02 02:24:02;;;;;;;;;13.75;13.00;;;;;14.95;52.74;101692.09;5039443;28;46016;-78
2023/05/02 02:26:28;;;;;;;;;21.00;16.75;;;;;14.93;52.77;101687.72;5039476;28;45338;-78
2023/05/02 02:28:55;;;;;;;;;23.75;17.25;;;;;14.93;52.73;101693.00;5039554;28;45398;-78
2023/05/02 02:31:20;;;;;;;;;19.00;17.75;;;;;14.92;52.54;101688.63;5021352;28;45613;-78
2023/05/02 02:33:46;;;;;;;;;23.50;18.25;;;;;14.91;53.00;101689.53;5039670;28;45399;-78
2023/05/02 02:36:26;;;;;;;;;18.75;16.00;;;;;14.88;52.31;101693.09;5039288;28;45230;-78
2023/05/02 02:39:06;;;;;;;;;19.25;19.25;;;;;14.88;52.82;101703.69;5021617;28;45381;-78
2023/05/02 02:41:38;;;;;;;;;18.50;18.00;;;;;14.87;52.53;101704.56;5039306;28;45250;-78
2023/05/02 02:44:25;;;;;;;;;17.00;16.00;;;;;14.85;53.01;101710.78;5039440;28;46566;-78
2023/05/02 02:47:08;;;;;;;;;16.75;14.25;;;;;14.82;52.85;101709.06;5021022;28;45303;-78
2023/05/02 02:50:07;;;;;;;;;21.00;15.50;;;;;14.79;52.68;101704.72;5039356;28;45563;-78
2023/05/02 02:52:47;;;;;;;;;16.00;14.00;;;;;14.79;52.80;101719.69;5032682;28;45349;-78
2023/05/02 02:55:25;;;;;;;;;20.50;17.25;;;;;14.76;53.08;101717.09;5039096;28;45333;-78
2023/05/02 02:58:09;;;;;;;;;16.50;14.00;;;;;14.74;52.78;101716.25;5039084;28;45214;-78
2023/05/02 03:00:35;;;;;;;;;19.50;16.00;;;;;14.71;52.89;101714.53;5039224;28;45262;-78
2023/05/02 03:03:00;;;;;;;;;18.25;16.50;;;;;14.66;52.86;101708.44;5039036;28;45267;-78
2023/05/02 03:05:28;;;;;;;;;15.25;14.75;;;;;14.60;52.56;101697.91;5020730;28;46973;-78
2023/05/02 03:07:53;;;;;;;;;20.25;18.00;;;;;14.67;53.06;101714.63;5041668;28;45233;-77
2023/05/02 03:10:21;;;;;;;;;18.75;17.00;;;;;14.67;52.86;101723.41;5024552;28;45495;-78
2023/05/02 03:12:46;;;;;;;;;19.00;15.75;;;;;14.62;53.08;101715.50;5042854;28;45427;-78
2023/05/02 03:16:05;;;;;;;;;18.75;15.50;;;;;14.61;52.87;101707.59;5042422;28;46147;-78
2023/05/02 03:18:30;;;;;;;;;16.75;15.00;;;;;14.62;53.02;101706.72;5024261;28;45264;-78
2023/05/02 03:20:56;;;;;;;;;22.00;18.75;;;;;14.58;53.19;101703.25;5042587;28;45309;-78
2023/05/02 03:23:21;;;;;;;;;14.00;13.75;;;;;14.55;52.96;101711.25;5041831;28;51795;-77
2023/05/02 03:25:46;;;;;;;;;17.00;16.50;;;;;14.56;53.13;101714.75;5042336;28;46115;-77
2023/05/02 03:28:12;;;;;;;;;14.00;12.00;;;;;14.51;53.09;101712.16;5042090;28;45478;-77
2023/05/02 03:30:39;;;;;;;;;19.75;19.50;;;;;14.51;52.97;101706.00;5042586;28;45261;-77
2023/05/02 03:33:06;;;;;;;;;18.75;16.75;;;;;14.52;53.09;101713.91;5041810;28;45548;-77
2023/05/02 03:35:31;;;;;;;;;26.00;19.00;;;;;14.45;53.35;101712.25;5042053;28;46203;-77
2023/05/02 03:37:57;;;;;;;;;19.00;16.50;;;;;14.45;52.99;101718.44;5023526;28;55312;-77
2023/05/02 03:40:22;;;;;;;;;20.25;18.00;;;;;14.48;53.33;101722.81;5024508;28;45281;-77
2023/05/02 03:42:47;;;;;;;;;19.00;17.75;;;;;14.46;52.95;101725.47;5042037;28;45275;-77
2023/05/02 03:45:13;;;;;;;;;19.50;18.00;;;;;14.45;53.45;101729.00;5024007;28;51665;-77
2023/05/02 03:47:38;;;;;;;;;20.75;18.50;;;;;14.43;52.80;101719.34;5040307;28;45364;-77
2023/05/02 03:50:04;;;;;;;;;21.75;18.50;;;;;14.39;53.06;101717.63;5040761;28;45312;-77
2023/05/02 03:52:30;;;;;;;;;18.50;18.50;;;;;14.40;53.46;101725.56;5040794;28;45279;-77
2023/05/02 03:54:56;;;;;;;;;18.75;16.50;;;;;14.36;53.36;101722.97;5041754;28;45246;-77
2023/05/02 03:57:21;;;;;;;;;16.25;15.75;;;;;14.36;53.00;101729.13;5061043;28;45294;-77
2023/05/02 03:59:47;;;;;;;;;18.75;15.50;;;;;14.34;53.06;101732.69;5034712;28;45231;-77
2023/05/02 04:02:12;;;;;;;;;19.75;16.00;;;;;14.29;53.30;101722.19;5040356;28;45385;-77
2023/05/02 04:04:39;;;;;;;;;21.00;18.25;;;;;14.29;52.91;101728.34;5023705;28;47289;-77
2023/05/02 04:07:06;;;;;;;;;18.50;16.00;;;;;14.24;53.14;101727.53;5041682;28;45281;-77
2023/05/02 04:09:32;;;;;;;;;22.25;16.50;;;;;14.23;53.10;101717.84;5023760;28;45344;-77
2023/05/02 04:11:57;;;;;;;;;18.00;17.00;;;;;14.21;53.41;101722.28;5041541;28;45328;-77
2023/05/02 04:14:22;;;;;;;;;21.50;20.25;;;;;14.17;53.45;101725.88;5041488;28;45364;-77
2023/05/02 04:16:49;;;;;;;;;21.75;19.50;;;;;14.19;53.45;101729.38;5041146;28;45383;-77
2023/05/02 04:19:15;;;;;;;;;19.50;17.00;;;;;14.18;53.21;101732.03;5023194;28;45428;-77
2023/05/02 04:21:40;;;;;;;;;24.50;23.00;;;;;14.18;53.67;101734.69;5041327;28;45355;-61
2023/05/02 04:24:07;;;;;;;;;18.75;17.00;;;;;14.13;53.66;101737.38;5041368;28;46235;-61
2023/05/02 04:26:33;;;;;;;;;17.50;16.25;;;;;14.11;53.70;101739.16;5041242;28;45334;-61
2023/05/02 04:28:58;;;;;;;;;16.00;16.00;;;;;14.05;53.23;101726.03;5041466;28;45261;-64
2023/05/02 04:31:23;;;;;;;;;18.00;17.00;;;;;14.09;53.64;101752.41;5022892;28;45614;-64
2023/05/02 04:33:49;;;;;;;;;22.00;17.00;;;;;14.07;53.48;101748.03;5041246;28;45415;-64
2023/05/02 04:36:15;;;;;;;;;20.75;18.75;;;;;14.05;53.49;101749.81;5041039;28;45257;-63
2023/05/02 04:38:40;;;;;;;;;37.50;31.00;;;;;14.04;53.50;101748.09;5041457;28;45550;-66
2023/05/02 04:41:06;;;;;;;;;24.75;22.75;;;;;14.07;53.27;101753.31;5041080;28;45301;-64
2023/05/02 04:43:31;;;;;;;;;58.25;47.00;;;;;14.02;53.54;101750.72;5041053;28;45726;-64
2023/05/02 04:45:58;;;;;;;;;27.00;24.00;;;;;14.03;53.17;101754.25;5023270;28;45358;-63
2023/05/02 04:48:24;;;;;;;;;21.75;21.25;;;;;14.05;53.29;101763.03;5040421;28;54115;-64
2023/05/02 04:50:52;;;;;;;;;21.00;20.25;;;;;14.03;53.28;101762.19;5059475;28;45462;-63
2023/05/02 04:53:17;;;;;;;;;26.00;23.00;;;;;14.02;52.71;101771.88;5060938;28;46461;-63
2023/05/02 04:55:43;;;;;;;;;28.00;24.50;;;;;14.01;53.83;101780.69;5060848;28;45229;-63
2023/05/02 04:58:08;;;;;;;;;23.00;21.25;;;;;13.99;53.36;101779.84;5061172;28;46023;-64
2023/05/02 05:00:33;;;;;;;;;25.75;22.25;;;;;14.01;53.25;101790.38;5027394;28;45439;-63
2023/05/02 05:02:58;;;;;;;;;25.50;25.50;;;;;14.00;53.40;101789.53;5040696;28;45226;-63
2023/05/02 05:05:24;;;;;;;;;20.75;18.75;;;;;13.99;53.66;101790.41;5040611;28;47805;-63
2023/05/02 05:07:51;;;;;;;;;23.75;19.00;;;;;13.95;53.41;101784.28;5022731;28;50576;-63
2023/05/02 05:10:16;;;;;;;;;28.50;22.75;;;;;13.89;53.63;101773.78;5042443;28;45506;-63
2023/05/02 05:12:42;;;;;;;;;27.50;22.25;;;;;13.93;53.65;101777.28;5060708;28;46300;-63
2023/05/02 05:15:07;;;;;;;;;20.75;18.50;;;;;13.95;53.90;101801.94;5060516;28;45392;-63
2023/05/02 05:17:33;;;;;;;;;26.00;23.00;;;;;13.95;53.39;101797.50;5042706;28;45493;-63
2023/05/02 05:19:58;;;;;;;;;25.75;24.50;;;;;13.92;53.54;101801.94;5039515;28;45723;-63
2023/05/02 05:22:23;;;;;;;;;22.00;19.75;;;;;13.94;53.48;101810.75;5040661;28;45368;-63
2023/05/02 05:24:55;;;;;;;;;21.00;17.25;;;;;13.94;53.86;101810.75;5022591;28;45916;-63
2023/05/02 05:27:20;;;;;;;;;23.25;22.25;;;;;13.93;53.54;101814.25;5040524;28;46183;-63
2023/05/02 05:29:46;;;;;;;;;24.75;20.00;;;;;13.90;53.45;101806.34;5021771;28;45388;-63
2023/05/02 05:32:11;;;;;;;;;24.75;21.50;;;;;13.94;53.58;101814.25;5039360;28;46224;-63
2023/05/02 05:34:37;;;;;;;;;22.50;20.50;;;;;13.90;53.85;101806.34;5040305;28;45384;-63
2023/05/02 05:37:02;;;;;;;;;23.00;21.00;;;;;13.92;53.57;101821.34;5040364;28;45463;-63
2023/05/02 05:39:27;;;;;;;;;20.75;20.00;;;;;13.93;53.72;101825.69;5040242;28;45439;-63
2023/05/02 05:41:53;;;;;;;;;21.50;19.50;;;;;13.95;53.92;101831.00;5040199;28;45313;-63
2023/05/02 05:44:20;;;;;;;;;23.50;18.25;;;;;13.93;54.25;101836.28;5022209;28;45326;-63
2023/05/02 05:46:46;;;;;;;;;46.50;36.25;;;;;13.93;53.87;101836.28;5040106;28;45171;-63
2023/05/02 05:49:12;;;;;;;;;49.00;35.25;;;;;13.91;53.71;101829.25;5040226;28;45404;-63
2023/05/02 05:51:37;;;;;;;;;22.25;21.75;;;;;13.93;53.71;101841.56;5022168;28;47925;-63
2023/05/02 05:54:03;;;;;;;;;29.25;24.50;;;;;13.91;53.62;101837.19;5039971;28;45227;-63
2023/05/02 05:56:28;;;;;;;;;25.50;20.75;;;;;13.91;54.13;101838.06;5040022;28;45203;-63
2023/05/02 05:58:53;;;;;;;;;27.50;23.25;;;;;13.91;54.37;101840.72;5022094;28;45474;-63
2023/05/02 06:01:19;;;;;;;;;28.25;24.75;;;;;13.93;53.80;101841.56;5039781;28;45849;-63
2023/05/02 06:03:44;;;;;;;;;27.50;25.25;;;;;13.94;53.85;101851.25;5054322;28;45342;-63
2023/05/02 06:06:10;;;;;;;;;23.25;22.50;;;;;13.91;53.86;101855.66;5060241;28;45214;-63
2023/05/02 06:08:35;;;;;;;;;27.75;26.00;;;;;13.90;54.14;101852.16;5059972;28;45498;-63
2023/05/02 06:11:00;;;;;;;;;26.00;25.00;;;;;13.88;53.95;101853.94;5059734;28;46209;-63
2023/05/02 06:13:26;;;;;;;;;23.25;21.00;;;;;13.92;54.05;101863.63;5059775;28;45339;-63
2023/05/02 06:15:51;;;;;;;;;29.00;26.25;;;;;13.92;54.46;101868.91;5059936;28;45307;-63
2023/05/02 06:18:17;;;;;;;;;27.50;24.75;;;;;13.94;54.33;101871.50;5059604;28;45307;-63
2023/05/02 06:20:42;;;;;;;;;28.50;25.50;;;;;13.89;54.21;101866.28;5050449;28;46615;-63
2023/05/02 06:23:07;;;;;;;;;28.75;24.25;;;;;13.93;54.29;101867.13;5039735;28;45389;-62
2023/05/02 06:25:36;;;;;;;;;29.25;25.50;;;;;13.92;54.50;101868.91;5039706;28;45285;-63
2023/05/02 06:28:02;;;;;;;;;26.75;24.50;;;;;13.93;54.53;101864.47;5039507;28;45432;-63
2023/05/02 06:30:27;;;;;;;;;25.25;23.75;;;;;13.96;54.30;101867.97;5021538;28;45336;-63
2023/05/02 06:32:53;;;;;;;;;28.00;24.75;;;;;13.96;54.58;101869.72;5039311;28;45361;-63
2023/05/02 06:35:18;;;;;;;;;29.50;25.50;;;;;13.95;54.56;101871.50;5021730;28;45259;-63
2023/05/02 06:37:43;;;;;;;;;32.00;28.50;;;;;13.95;54.42;101878.56;5039408;28;45220;-63
2023/05/02 06:40:09;;;;;;;;;26.75;25.00;;;;;13.99;54.60;101882.91;5039334;28;50691;-63
2023/05/02 06:42:38;;;;;;;;;36.00;27.25;;;;;14.00;54.58;101889.94;5041536;28;45439;-63
2023/05/02 06:45:03;;;;;;;;;30.50;29.25;;;;;14.02;54.61;101884.66;5025223;28;45314;-63
2023/05/02 06:47:30;;;;;;;;;31.00;25.75;;;;;14.03;54.58;101889.03;5042730;28;45402;-63
2023/05/02 06:49:55;;;;;;;;;31.25;27.25;;;;;14.01;54.70;101881.09;5042893;28;45383;-63
2023/05/02 06:52:21;;;;;;;;;27.00;24.75;;;;;13.98;54.69;101881.16;5024892;28;45266;-63
2023/05/02 06:54:46;;;;;;;;;29.25;25.75;;;;;14.08;54.38;101889.88;5043030;28;45166;-63
2023/05/02 06:57:11;;;;;;;;;30.75;26.75;;;;;14.08;54.91;101898.66;5042569;28;45184;-63
2023/05/02 06:59:37;;;;;;;;;30.50;25.75;;;;;14.10;54.57;101896.00;5042848;28;45979;-63
2023/05/02 07:02:02;;;;;;;;;30.50;27.00;;;;;14.12;54.66;101897.75;5042531;28;45371;-63
2023/05/02 07:04:27;;;;;;;;;27.50;24.25;;;;;14.12;54.92;101902.16;5042907;28;45302;-63
2023/05/02 07:06:53;;;;;;;;;32.50;26.25;;;;;14.15;54.74;101899.50;5042525;28;51498;-63
2023/05/02 07:09:18;;;;;;;;;24.75;23.75;;;;;14.16;54.83;101901.22;5042513;28;45269;-63
2023/05/02 07:11:43;;;;;;;;;28.00;26.75;;;;;14.15;54.96;101899.50;5042022;28;45503;-63
2023/05/02 07:14:09;;;;;;;;;29.50;25.75;;;;;14.13;54.66;101895.97;5042291;28;53170;-63
2023/05/02 07:16:34;;;;;;;;;25.50;20.50;;;;;14.21;54.67;101901.19;5042298;28;45401;-63
2023/05/02 07:19:00;;;;;;;;;36.75;30.00;;;;;14.19;54.87;101893.28;5042325;28;45357;-63
2023/05/02 07:21:25;;;;;;;;;29.00;26.25;;;;;14.26;55.06;101900.25;5024362;28;45382;-63
2023/05/02 07:23:51;;;;;;;;;29.00;26.00;;;;;14.26;54.80;101905.53;5042578;28;45420;-63
2023/05/02 07:26:17;;;;;;;;;28.25;26.75;;;;;14.32;54.84;101909.00;5024196;28;45306;-63
2023/05/02 07:28:43;;;;;;;;;28.75;27.25;;;;;14.33;54.75;101906.34;5042257;28;46228;-63
2023/05/02 07:31:08;;;;;;;;;30.00;28.00;;;;;14.33;54.79;101903.69;5041807;28;45369;-63
2023/05/02 07:33:33;;;;;;;;;31.25;27.00;;;;;14.38;54.92;101903.66;5042591;28;45424;-63
2023/05/02 07:36:00;;;;;;;;;31.00;27.50;;;;;14.39;55.05;101897.44;5023637;28;45699;-63
2023/05/02 07:38:26;;;;;;;;;28.00;24.00;;;;;14.34;54.93;101886.94;5042146;28;45339;-63
2023/05/02 07:40:52;;;;;;;;;21.00;21.00;;;;;14.45;55.05;101903.56;5041922;28;45374;-63
2023/05/02 07:43:17;;;;;;;;;32.50;28.00;;;;;14.46;54.82;101907.06;5042333;28;45214;-63
2023/05/02 07:45:42;;;;;;;;;33.75;28.50;;;;;14.49;55.02;101907.03;5041620;28;51270;-63
2023/05/02 07:48:07;;;;;;;;;31.25;26.00;;;;;14.51;55.09;101912.31;5041151;28;58167;-63
2023/05/02 07:50:33;;;;;;;;;32.75;26.50;;;;;14.52;54.96;101908.78;5041823;28;45242;-63
2023/05/02 07:52:59;;;;;;;;;29.75;23.75;;;;;14.51;54.92;101910.53;5061656;28;45215;-63
2023/05/02 07:55:25;;;;;;;;;25.75;24.50;;;;;14.58;54.81;101925.44;5061798;28;45352;-63
2023/05/02 07:57:51;;;;;;;;;30.25;28.00;;;;;14.62;54.70;101920.97;5035600;28;46957;-63
2023/05/02 08:00:16;;;;;;;;;37.00;29.50;;;;;14.63;54.60;101922.75;5041478;28;45373;-63
2023/05/02 08:02:42;;;;;;;;;26.75;25.00;;;;;14.66;54.89;101919.22;5041798;28;45241;-63
2023/05/02 08:05:07;;;;;;;;;25.50;25.00;;;;;14.71;54.80;101925.31;5060252;28;45367;-63
2023/05/02 08:07:34;;;;;;;;;33.00;30.50;;;;;14.70;55.23;101920.91;5061780;28;45289;-63
2023/05/02 08:10:00;;;;;;;;;31.50;28.50;;;;;14.77;55.00;101933.19;5043299;28;45354;-63
2023/05/02 08:12:25;;;;;;;;;32.50;29.00;;;;;14.81;54.78;101936.66;5043734;28;45340;-63
2023/05/02 08:14:50;;;;;;;;;31.75;29.00;;;;;14.82;54.90;101933.09;5061670;28;45360;-63
2023/05/02 08:17:16;;;;;;;;;31.50;28.25;;;;;14.87;55.26;101944.53;5061204;28;46125;-63
2023/05/02 08:19:41;;;;;;;;;28.50;24.75;;;;;14.91;55.30;101949.75;5060947;28;45348;-63
2023/05/02 08:22:06;;;;;;;;;34.00;30.00;;;;;14.94;55.34;101939.13;5041492;28;47372;-63
2023/05/02 08:24:32;;;;;;;;;33.25;27.50;;;;;14.95;54.81;101940.88;5023217;28;45435;-63
2023/05/02 08:26:57;;;;;;;;;36.00;28.00;;;;;14.99;54.72;101949.63;5041196;28;45304;-63
2023/05/02 08:29:23;;;;;;;;;26.75;22.00;;;;;15.06;54.69;101959.25;5060621;28;45302;-63
2023/05/02 08:31:48;;;;;;;;;29.00;28.00;;;;;15.11;55.28;101948.59;5043481;28;45373;-63
2023/05/02 08:34:14;;;;;;;;;30.50;27.00;;;;;15.15;55.21;101957.38;5043130;28;45357;-63
2023/05/02 08:36:39;;;;;;;;;33.75;30.50;;;;;15.18;54.87;101955.56;5042644;28;47570;-63
2023/05/02 08:39:06;;;;;;;;;42.75;35.75;;;;;15.22;55.36;101953.72;5061265;28;45163;-63
2023/05/02 08:41:32;;;;;;;;;34.50;32.75;;;;;15.26;55.35;101950.16;5043142;28;45440;-63
2023/05/02 08:43:58;;;;;;;;;33.75;31.50;;;;;15.30;55.26;101951.00;5061150;28;45419;-63
2023/05/02 08:46:25;;;;;;;;;37.75;31.00;;;;;15.32;54.90;101947.44;5060768;28;45461;-63
2023/05/02 08:48:51;;;;;;;;;37.50;31.25;;;;;15.32;55.44;101943.88;5060875;28;45392;-63
2023/05/02 08:51:17;;;;;;;;;26.25;24.25;;;;;15.39;55.47;101956.16;5061118;28;45237;-63
2023/05/02 08:53:44;;;;;;;;;32.75;29.50;;;;;15.42;55.16;101964.03;5060914;28;45492;-63
2023/05/02 08:56:11;;;;;;;;;31.75;27.75;;;;;15.47;55.12;101970.16;5060757;28;45296;-63
2023/05/02 08:58:38;;;;;;;;;26.75;24.25;;;;;15.50;54.99;101967.47;5042542;28;45261;-63
2023/05/02 09:01:20;;;;;;;;;29.25;24.50;;;;;15.52;55.38;101968.31;5040864;28;45453;-63
2023/05/02 09:03:46;;;;;;;;;29.25;20.75;;;;;15.58;54.86;101968.22;5038856;28;45293;-63
2023/05/02 09:06:15;;;;;;;;;25.25;23.25;;;;;15.59;54.79;101969.94;5040330;28;45599;-63
2023/05/02 09:08:42;;;;;;;;;32.25;22.00;;;;;15.66;54.74;101976.06;5040382;28;45281;-63
2023/05/02 09:11:09;;;;;;;;;29.75;27.50;;;;;15.70;55.27;101968.94;5040531;28;45477;-63
2023/05/02 09:13:43;;;;;;;;;25.00;22.00;;;;;15.76;54.85;101976.78;5019183;28;45733;-63
2023/05/02 09:16:13;;;;;;;;;28.00;20.75;;;;;15.80;55.23;101969.63;5031550;28;45226;-63
2023/05/02 09:18:40;;;;;;;;;18.00;17.00;;;;;15.86;55.39;101985.47;5022351;28;45390;-63
2023/05/02 09:21:16;;;;;;;;;27.75;24.50;;;;;15.90;55.25;101987.19;5022984;28;45334;-63
2023/05/02 09:23:46;;;;;;;;;30.00;22.75;;;;;15.97;55.37;101990.59;5022380;28;45441;-63
2023/05/02 09:26:17;;;;;;;;;26.75;22.00;;;;;16.02;55.14;101996.69;5040101;28;45574;-63
2023/05/02 09:28:50;;;;;;;;;30.25;25.75;;;;;16.05;55.06;101994.88;5022311;28;45372;-63
2023/05/02 09:31:29;;;;;;;;;27.75;25.00;;;;;16.13;55.16;102008.00;5022152;28;45520;-63
2023/05/02 09:33:55;;;;;;;;;25.50;25.50;;;;;16.15;55.26;102006.19;5040110;28;45730;-62
2023/05/02 09:36:21;;;;;;;;;34.75;28.75;;;;;16.21;54.87;102005.19;5039033;28;45502;-62
2023/05/02 09:38:49;;;;;;;;;27.00;26.75;;;;;16.27;55.17;102004.22;5059358;28;45340;-62
2023/05/02 09:41:16;;;;;;;;;31.00;24.25;;;;;16.32;54.85;102007.69;5060220;28;45261;-62
2023/05/02 09:43:42;;;;;;;;;26.00;23.50;;;;;16.37;54.87;102006.66;5060128;28;45463;-62
2023/05/02 09:46:09;;;;;;;;;19.50;18.50;;;;;16.42;54.82;102019.84;5059844;28;45355;-63
2023/05/02 09:48:52;;;;;;;;;21.25;21.00;;;;;16.47;54.89;102018.00;5060104;28;45322;-63
2023/05/02 09:51:18;;;;;;;;;29.00;25.50;;;;;16.53;54.70;102017.88;5060093;28;45259;-62
2023/05/02 09:53:44;;;;;;;;;22.25;21.25;;;;;16.60;55.18;102012.47;5025310;28;45475;-63
2023/05/02 09:56:09;;;;;;;;;21.00;19.25;;;;;16.67;54.91;102014.97;5041615;28;47975;-63
2023/05/02 09:58:35;;;;;;;;;24.75;20.75;;;;;16.72;55.21;102018.41;5059862;28;45253;-63
2023/05/02 10:01:00;;;;;;;;;27.25;24.00;;;;;16.83;54.69;102012.00;5025621;28;45742;-63
2023/05/02 10:03:27;;;;;;;;;20.50;18.50;;;;;16.87;54.90;102005.75;5041852;28;45447;-63
2023/05/02 10:05:54;;;;;;;;;21.00;17.75;;;;;17.00;54.96;102019.66;5059966;28;45484;-63
2023/05/02 10:08:22;;;;;;;;;24.00;22.25;;;;;17.11;54.88;102014.13;5059472;28;45342;-63
2023/05/02 10:10:52;;;;;;;;;21.75;18.25;;;;;17.21;55.00;102013.88;5041691;28;45273;-63
2023/05/02 10:13:21;;;;;;;;;18.50;16.25;;;;;17.34;55.09;102010.97;5059658;28;45311;-63
2023/05/02 10:15:52;;;;;;;;;24.00;20.50;;;;;17.43;55.05;102001.91;5040738;28;46939;-64
2023/05/02 10:18:27;;;;;;;;;20.50;17.50;;;;;17.59;54.66;102011.28;5059471;28;45344;-64
2023/05/02 10:20:57;;;;;;;;;26.00;21.25;;;;;17.74;54.90;102012.69;5048865;28;45418;-61
2023/05/02 10:23:28;;;;;;;;;22.00;20.50;;;;;17.86;55.03;102007.09;5039557;28;45241;-64
2023/05/02 10:25:54;;;;;;;;;20.75;20.25;;;;;18.02;55.14;102007.63;5039577;28;45483;-64
2023/05/02 10:28:19;;;;;;;;;27.50;21.25;;;;;18.20;55.09;102013.38;5039282;28;45515;-62
2023/05/02 10:30:46;;;;;;;;;18.75;18.75;;;;;18.36;55.45;102013.81;5039367;28;45808;-62
2023/05/02 10:33:13;;;;;;;;;18.75;16.75;;;;;18.54;55.20;102011.56;5021801;28;45271;-62
2023/05/02 10:35:43;;;;;;;;;25.00;22.00;;;;;18.71;54.88;102006.66;5039339;28;46184;-62
2023/05/02 10:38:09;;;;;;;;;19.00;16.50;;;;;18.84;54.60;102000.06;5021287;28;45446;-63
2023/05/02 10:40:35;;;;;;;;;21.25;18.00;;;;;18.99;54.44;102001.44;5039438;28;45274;-62
2023/05/02 10:43:03;;;;;;;;;16.75;15.50;;;;;19.19;54.86;102005.28;5039342;28;45175;-63
2023/05/02 10:45:36;;;;;;;;;16.25;16.00;;;;;19.37;54.54;102006.53;5039252;28;46482;-63
2023/05/02 10:48:21;;;;;;;;;16.75;15.00;;;;;19.56;54.70;102013.94;5039079;28;45424;-63
2023/05/02 10:50:53;;;;;;;;;26.00;25.00;;;;;19.71;54.85;102013.47;5059197;28;45451;-63
2023/05/02 10:53:23;;;;;;;;;22.75;16.00;;;;;19.88;54.99;102012.91;5041487;28;45714;-63
2023/05/02 10:56:09;;;;;;;;;19.00;18.75;;;;;20.07;54.36;102018.50;5040753;28;47199;-64
2023/05/02 10:58:35;;;;;;;;;16.25;14.00;;;;;20.21;54.33;102006.50;5016859;28;45273;-64
2023/05/02 11:01:28;;;;;;;;;19.25;16.25;;;;;20.39;53.95;102010.31;5020842;28;45426;-64
2023/05/02 11:03:55;;;;;;;;;15.50;13.50;;;;;20.54;54.19;102011.56;5039126;28;45170;-63
2023/05/02 11:06:21;;;;;;;;;12.50;12.50;;;;;20.65;54.02;102004.03;5038842;28;46185;-63
2023/05/02 11:08:46;;;;;;;;;15.00;15.00;;;;;20.77;53.81;102002.75;5020947;28;45356;-63
2023/05/02 11:11:41;;;;;;;;;18.25;17.50;;;;;20.93;53.51;102005.72;5037808;28;45308;-63
2023/05/02 11:14:08;;;;;;;;;14.75;13.75;;;;;21.05;53.50;102007.03;5033508;28;45334;-63